• Join FlightAware (Why Join?)
  • Login
  • US Flag 
09:25AM EDT


 

Airport Tracker/Info


-or-


 

Live Flight TrackerFlight Track Log ✈ UCA3597 ✈ 02-Oct-2013 ✈ KBGM - KIAD

Flight Track Log - Related Links

Times and Time Zones

All times are in EDT time to prevent confusion due to time zone crossing. See the UCA3597 flight status page for this flight to view local times or setup timezone preferences in your user account.

Time Position Orientation Groundspeed Altitude Reporting Facility
EDT Latitude Longitude Course Direction KTS MPH feet Rate Location/Type
07:23PM 42.1869 -76.0519 215° Southwest 158 182 5,100  Level New York Center
07:24PM 42.1544 -76.0828 215° Southwest 158 182 6,800 1,380 Climbing New York Center
07:25PM 42.1131 -76.1186 213° Southwest 168 193 8,000 960 Climbing New York Center
07:26PM 42.0611 -76.1675 215° Southwest 199 229 8,800 1,260 Climbing New York Center
07:27PM 42.0025 -76.2158 212° Southwest 232 267 10,600 1,500 Climbing New York Center
07:28PM 41.9528 -76.2564 211° Southwest 232 267 11,900 1,200 Climbing New York Center
07:29PM 41.9031 -76.2997 213° Southwest 226 260 13,000 1,080 Climbing New York Center
07:30PM 41.8553 -76.3403 212° Southwest 226 260 14,100 1,140 Climbing New York Center
07:31PM 41.7989 -76.3883 212° Southwest 226 260 15,300 900 Climbing New York Center
07:32PM 41.7447 -76.4339 212° Southwest 226 260 16,000 300 Climbing New York Center
07:33PM 41.6858 -76.4844 213° Southwest 247 284 16,000  Level New York Center
07:34PM 41.6253 -76.5347 212° Southwest 274 315 16,000  Level New York Center
07:35PM 41.5603 -76.5872 211° Southwest 280 322 16,000  Level New York Center
07:36PM 41.4883 -76.6475 212° Southwest 280 322 16,000  Level New York Center
07:37PM 41.4253 -76.7058 215° Southwest 285 328 16,000  Level New York Center
07:38PM 41.3581 -76.7578 210° Southwest 285 328 16,000  Level New York Center
07:39PM 41.2833 -76.7925 199° South 285 328 16,000  Level New York Center
07:40PM 41.2036 -76.8050 187° South 290 334 16,000  Level New York Center
07:41PM 41.1236 -76.8197 188° South 296 341 16,000  Level New York Center
07:42PM 41.0436 -76.8347 188° South 296 341 16,000  Level New York Center
07:43PM 40.9636 -76.8494 188° South 296 341 16,000  Level New York Center
07:44PM 40.8836 -76.8672 190° South 296 341 16,000  Level New York Center
07:45PM 40.8119 -76.8800 188° South 296 341 16,000  Level New York Center
07:46PM 40.7253 -76.9050 192° South 296 341 16,000  Level New York Center
07:47PM 40.6556 -76.9261 193° South 296 341 16,000  Level New York Center
07:48PM 40.5683 -76.9567 195° South 290 334 16,000  Level New York Center
07:49PM 40.4964 -76.9775 192° South 290 334 16,000  Level New York Center
07:50PM 40.4097 -77.0025 192° South 290 334 16,000  Level New York Center
07:51PM 40.3375 -77.0258 194° South 290 334 16,000 -360 Level New York Center
07:52PM 40.2506 -77.0533 194° South 300 345 15,300 -900 Descending New York Center
07:53PM 40.1000 -77.1000 193° South 304 350 13,500 -1,020 Descending Potomac TRACON
07:55PM 40.0333 -77.1167 191° South 297 342 12,500 -960 Descending Potomac TRACON
07:56PM 39.9500 -77.1500 197° South 286 329 11,500 -780 Descending Potomac TRACON
07:57PM 39.8667 -77.1667 189° South 277 319 11,000 -300 Descending Potomac TRACON
07:57PM 39.8000 -77.1667 180° South 271 312 11,000  Level Potomac TRACON
07:58PM 39.7333 -77.1500 169° South 273 314 11,000 -60 Level Potomac TRACON
07:59PM 39.6833 -77.2167 226° Southwest 255 293 10,900 -540 Descending Potomac TRACON
08:00PM 39.6500 -77.3000 243° Southwest 257 296 10,000 -900 Descending Potomac TRACON
08:02PM 39.5833 -77.3500 210° Southwest 269 310 9,100 -900 Descending Potomac TRACON
08:03PM 39.5000 -77.3500 180° South 279 321 8,200 -900 Descending Potomac TRACON
08:04PM 39.4333 -77.3667 191° South 279 321 7,300 -900 Descending Potomac TRACON
08:05PM 39.3500 -77.3667 180° South 280 322 6,400 -900 Descending Potomac TRACON
08:06PM 39.2667 -77.3667 180° South 282 325 5,500 -720 Descending Potomac TRACON
08:07PM 39.2000 -77.3500 169° South 279 321 5,000 -300 Descending Potomac TRACON
08:08PM 39.1167 -77.3500 180° South 265 305 5,000 -240 Level Potomac TRACON
08:09PM 39.0333 -77.3500 180° South 263 303 4,600 -480 Descending Potomac TRACON
08:09PM 38.9833 -77.3500 180° South 273 314 4,100 -540 Descending Potomac TRACON
08:10PM 38.9000 -77.3500 180° South 271 312 3,600 -600 Descending Potomac TRACON
08:11PM 38.8333 -77.3667 191° South 249 287 3,000 -600 Descending Potomac TRACON
08:12PM 38.7833 -77.4000 207° Southwest 211 243 2,400 -600 Descending Potomac TRACON
08:13PM 38.8167 -77.4333 322° Northwest 195 224 1,900 -540 Descending Potomac TRACON
08:14PM 38.8667 -77.4333 360° North 144 166 1,400 -600 Descending Potomac TRACON
08:15PM 38.9000 -77.4333 360° North 117 135 800 -600 Descending Potomac TRACON